< Typhoon 196127 1961 Season Typhoon 196129 >
Typhoon 196128 (DOT)
General InformationTrack Information on Google Maps || Disaster Info.ResourceGoogle EarthGE AnimationAtom FeedGeoJSON
Detalied Best Track (Time Zone = UTC)
Year Month Day Hour Lat. Long. Pressure (hPa) Wind (kt) Class Image Chart
1961 11 7 12 14.2 153.0 1008 0 2 -- Chart
1961 11 7 18 14.5 152.2 1008 0 2 -- Chart
1961 11 8 00 15.0 151.3 1000 0 2 -- Chart
1961 11 8 06 15.5 152.1 1000 0 2 -- Chart
1961 11 8 12 16.0 153.1 995 0 2 -- Chart
1961 11 8 18 16.5 154.1 985 0 9 -- Chart
1961 11 9 00 17.4 153.0 980 0 9 -- Chart
1961 11 9 06 17.6 151.5 980 0 9 -- Chart
1961 11 9 12 17.6 149.8 980 0 9 -- Chart
1961 11 9 18 17.7 148.8 980 0 9 -- Chart
1961 11 10 00 17.7 147.9 980 0 9 -- Chart
1961 11 10 06 17.8 146.8 970 0 9 -- Chart
1961 11 10 12 17.8 145.6 960 0 9 -- Chart
1961 11 10 18 17.9 144.3 950 0 9 -- Chart
1961 11 11 00 18.0 143.2 940 0 9 -- Chart
1961 11 11 06 18.2 142.2 930 0 9 -- Chart
1961 11 11 12 18.6 141.5 930 0 9 -- Chart
1961 11 11 18 19.2 141.0 930 0 9 -- Chart
1961 11 12 00 19.5 140.5 930 0 9 -- Chart
1961 11 12 06 20.1 140.4 930 0 9 -- Chart
1961 11 12 12 20.5 140.5 940 0 9 -- Chart
1961 11 12 18 20.9 140.7 950 0 9 -- Chart
1961 11 13 00 21.5 141.3 960 0 9 -- Chart
1961 11 13 06 22.5 143.0 960 0 9 -- Chart
1961 11 13 12 23.3 144.8 960 0 9 -- Chart
1961 11 13 18 24.0 146.5 960 0 9 -- Chart
1961 11 14 00 24.7 148.2 970 0 9 -- Chart
1961 11 14 06 25.6 150.5 970 0 9 -- Chart
1961 11 14 12 26.5 153.0 970 0 9 -- Chart
1961 11 14 18 27.5 155.5 980 0 9 -- Chart
1961 11 15 00 28.4 158.2 990 0 9 -- Chart
1961 11 15 06 30.2 162.2 1000 0 9 -- Chart
1961 11 15 12 31.1 164.9 1006 0 6 -- Chart
1961 11 15 18 32.0 168.0 1010 0 6 -- Chart
1961 11 16 00 33.6 171.1 1014 0 6 -- Chart
1961 11 16 06 35.0 174.0 1012 0 6 -- Chart
1961 11 16 12 36.5 177.6 1012 0 6 -- Chart
1961 11 16 18 38.1 181.6 1012 0 6 -- Chart
Japan Meteorological Agency Best Track Data | Correction Date : 1989-06-01
< Typhoon 196127 1961 Season Typhoon 196129 >

Help